Terminal Aerodrome Forecast
Issued by NWS

Home | Current Version | Previous Version | Text Only | Print | Product List | Glossary On
Versions: 1 2 3 4 5 6 7 8 9 10 11 12 13 14 15 16 17 18 19 20 21 22 23
000
FTUS44 KLIX 261100 RRA
TAFHUM
TAF
KHUM 261156Z 2612/2712 VRB03KT P6SM SCT250
     FM261300 VRB03KT P6SM SCT020
     FM261530 23006KT P6SM SCT040=

USA.gov is the U.S. government's official web portal to all federal, state and local government web resources and services.